Time;durP1;ratioP1;P1;durP2;ratioP2;P2;SDS_P1;SDS_P2;PMS_P1;PMS_P2;Temp;Humidity;BMP_temperature;BMP_pressure;BME280_temperature;BME280_humidity;BME280_pressure;Samples;Min_cycle;Max_cycle;Signal;HPM_P1;HPM_P2
2021/08/03 00:02:00;;;;;;;3.35;2.48;;;;;;;13.30;83.18;96655.56;127855;1093;30607;-90
2021/08/03 00:04:40;;;;;;;3.38;2.50;;;;;;;13.29;83.10;96655.86;127751;1093;29718;-91
2021/08/03 00:07:18;;;;;;;3.73;2.78;;;;;;;13.29;83.24;96650.53;127855;1093;25700;-91
2021/08/03 00:09:51;;;;;;;4.00;2.60;;;;;;;13.27;83.09;96650.83;127592;1093;25874;-90
2021/08/03 00:12:23;;;;;;;3.33;2.45;;;;;;;13.29;83.26;96648.66;127779;1093;30174;-94
2021/08/03 00:14:56;;;;;;;3.13;2.45;;;;;;;13.31;83.06;96648.36;127782;1095;28886;-93
2021/08/03 00:17:29;;;;;;;2.80;2.60;;;;;;;13.29;82.99;96655.86;127838;1092;37316;-93
2021/08/03 00:20:01;;;;;;;3.08;2.68;;;;;;;13.29;83.17;96650.53;127790;1093;31013;-93
2021/08/03 00:22:33;;;;;;;2.75;2.50;;;;;;;13.32;83.12;96655.27;127737;1096;30900;-93
2021/08/03 00:25:05;;;;;;;3.70;2.47;;;;;;;13.33;83.08;96651.52;127775;1093;31559;-94
2021/08/03 00:27:37;;;;;;;3.40;2.40;;;;;;;13.30;83.02;96668.88;127790;1093;31722;-91
2021/08/03 00:30:10;;;;;;;2.58;2.38;;;;;;;13.28;82.99;96656.94;127781;1093;28230;-94
2021/08/03 00:32:42;;;;;;;3.25;2.25;;;;;;;13.28;83.08;96655.06;127593;1093;27962;-91
2021/08/03 00:35:13;;;;;;;3.15;2.13;;;;;;;13.29;83.16;96661.18;127750;1093;30088;-91
2021/08/03 00:37:44;;;;;;;3.68;2.58;;;;;;;13.26;83.19;96651.13;127770;1093;26601;-91
2021/08/03 00:40:18;;;;;;;2.63;2.30;;;;;;;13.26;83.20;96656.45;127826;1093;26654;-91
2021/08/03 00:42:49;;;;;;;3.00;2.23;;;;;;;13.26;83.19;96653.78;127674;1093;36285;-91
2021/08/03 00:45:20;;;;;;;3.65;2.50;;;;;;;13.26;83.26;96659.90;127773;1093;29556;-92
2021/08/03 00:47:51;;;;;;;4.53;2.58;;;;;;;13.24;83.25;96650.63;127758;1093;32454;-92
2021/08/03 00:50:23;;;;;;;3.65;2.58;;;;;;;13.23;83.32;96659.67;127833;1092;27154;-92
2021/08/03 00:52:55;;;;;;;4.35;2.60;;;;;;;13.24;83.23;96663.95;127803;1093;30413;-90
2021/08/03 00:55:26;;;;;;;2.35;2.15;;;;;;;13.21;83.22;96659.19;127724;1093;29329;-91
2021/08/03 00:57:59;;;;;;;2.65;2.45;;;;;;;13.21;83.18;96651.98;127859;1093;36007;-92
2021/08/03 01:00:30;;;;;;;2.45;2.25;;;;;;;13.24;83.19;96658.63;127726;1093;32652;-92
2021/08/03 01:03:02;;;;;;;3.15;2.60;;;;;;;13.21;83.22;96657.31;127779;1093;27001;-92
2021/08/03 01:05:41;;;;;;;3.50;2.38;;;;;;;13.20;83.33;96657.61;127768;1091;31251;-91
2021/08/03 01:08:25;;;;;;;4.28;2.88;;;;;;;13.18;83.54;96655.23;127797;1093;31968;-92
2021/08/03 01:11:03;;;;;;;5.43;2.90;;;;;;;13.16;83.39;96656.59;127857;1095;36034;-91
2021/08/03 01:13:44;;;;;;;2.40;2.20;;;;;;;13.14;83.67;96651.56;127766;1095;31847;-90
2021/08/03 01:16:26;;;;;;;2.90;2.48;;;;;;;13.12;83.37;96644.95;127811;1093;27642;-92
2021/08/03 01:19:14;;;;;;;4.60;2.78;;;;;;;13.12;83.59;96645.75;127868;1093;30308;-91
2021/08/03 01:21:51;;;;;;;5.13;2.70;;;;;;;13.14;83.70;96643.58;127833;1093;27472;-91
2021/08/03 01:25:05;;;;;;;2.98;2.73;;;;;;;13.15;83.69;96639.83;127903;1093;29174;-93
2021/08/03 01:27:48;;;;;;;3.30;2.78;;;;;;;13.15;83.85;96641.70;127524;1096;28152;-91
2021/08/03 01:30:20;;;;;;;6.15;2.93;;;;;;;13.16;83.79;96641.41;127726;1093;31568;-92
2021/08/03 01:32:53;;;;;;;2.83;2.40;;;;;;;13.17;83.62;96642.20;127797;1093;33321;-93
2021/08/03 01:35:25;;;;;;;3.18;2.70;;;;;;;13.19;83.64;96648.04;127879;1094;27644;-91
2021/08/03 01:37:59;;;;;;;4.25;2.60;;;;;;;13.21;83.75;96651.20;127831;1096;28925;-91
2021/08/03 01:40:33;;;;;;;4.23;3.13;;;;;;;13.25;83.73;96649.55;127786;1093;29897;-92
2021/08/03 01:43:06;;;;;;;6.85;2.98;;;;;;;13.27;83.58;96647.38;127811;1095;28534;-91
2021/08/03 01:45:39;;;;;;;2.90;2.60;;;;;;;13.26;83.74;96646.59;127783;1093;30363;-91
2021/08/03 01:48:14;;;;;;;5.57;3.07;;;;;;;13.24;83.51;96640.77;127816;1093;28119;-91
2021/08/03 01:50:49;;;;;;;3.90;2.63;;;;;;;13.23;83.46;96641.04;127773;1093;27705;-92
2021/08/03 01:53:24;;;;;;;3.70;2.75;;;;;;;13.22;83.48;96642.13;127835;1093;28758;-92
2021/08/03 01:55:59;;;;;;;3.98;2.50;;;;;;;13.20;83.38;96636.31;127857;1093;32707;-91
2021/08/03 01:58:32;;;;;;;4.37;2.70;;;;;;;13.10;83.45;96644.47;127772;1092;27378;-92
2021/08/03 02:01:04;;;;;;;3.50;2.70;;;;;;;13.03;83.73;96648.28;127807;1093;26580;-92
2021/08/03 02:03:38;;;;;;;3.30;2.73;;;;;;;12.98;84.02;96639.61;127756;1091;30948;-90
2021/08/03 02:06:10;;;;;;;5.55;3.13;;;;;;;12.98;84.29;96644.93;127687;1093;27600;-91
2021/08/03 02:08:49;;;;;;;4.28;3.10;;;;;;;12.97;84.65;96646.80;127749;1093;73696;-91
2021/08/03 02:11:22;;;;;;;4.78;3.30;;;;;;;12.98;84.53;96655.57;127773;1095;25758;-91
2021/08/03 02:13:54;;;;;;;3.60;2.60;;;;;;;12.96;84.73;96644.44;127781;1093;25744;-91
2021/08/03 02:16:25;;;;;;;3.55;2.95;;;;;;;12.94;84.94;96655.34;127875;1093;29677;-91
2021/08/03 02:18:57;;;;;;;3.50;2.40;;;;;;;12.94;84.69;96650.02;127808;1093;28421;-89
2021/08/03 02:21:28;;;;;;;2.95;2.65;;;;;;;12.93;84.79;96656.42;127799;1093;34516;-90
2021/08/03 02:24:00;;;;;;;4.03;2.60;;;;;;;12.91;85.04;96658.59;127408;1095;33273;-90
2021/08/03 02:26:31;;;;;;;2.43;2.20;;;;;;;12.89;85.32;96657.31;127740;1093;31597;-92
2021/08/03 02:29:03;;;;;;;5.85;2.98;;;;;;;12.86;85.16;96664.02;127757;1093;34961;-91
2021/08/03 02:31:44;;;;;;;4.03;2.50;;;;;;;12.85;85.34;96645.68;127774;1093;24486;-91
2021/08/03 02:34:21;;;;;;;6.10;3.28;;;;;;;12.83;85.33;96647.84;127737;1093;37006;-90
2021/08/03 02:36:56;;;;;;;3.23;2.53;;;;;;;12.82;85.53;96660.36;127730;1093;33479;-90
2021/08/03 02:39:29;;;;;;;3.68;2.60;;;;;;;12.80;85.57;96659.83;127956;1093;26630;-92
2021/08/03 02:42:02;;;;;;;4.08;2.48;;;;;;;12.78;85.68;96656.67;127730;1093;27590;-91
2021/08/03 02:44:34;;;;;;;4.08;2.80;;;;;;;12.77;85.69;96655.89;127719;1093;37474;-91
2021/08/03 02:47:17;;;;;;;3.03;2.60;;;;;;;12.75;85.69;96658.05;127808;1093;27419;-92
2021/08/03 02:49:52;;;;;;;3.68;2.90;;;;;;;12.78;85.98;96669.98;129477;1092;26014;-91
2021/08/03 02:52:28;;;;;;;4.60;3.00;;;;;;;12.79;85.87;96660.91;129911;1091;38296;-90
2021/08/03 02:55:03;;;;;;;4.03;2.80;;;;;;;12.78;85.83;96662.00;128249;1093;34720;-92
2021/08/03 02:57:40;;;;;;;2.98;2.68;;;;;;;12.78;85.97;96651.36;127764;1092;34335;-91
2021/08/03 03:00:13;;;;;;;3.28;2.93;;;;;;;12.77;85.96;96660.42;127778;1092;29516;-91
2021/08/03 03:02:47;;;;;;;3.50;2.50;;;;;;;12.76;85.96;96653.52;127750;1093;27583;-92
2021/08/03 03:05:24;;;;;;;2.93;2.33;;;;;;;12.72;85.95;96663.17;127732;1093;27994;-91
2021/08/03 03:08:01;;;;;;;4.15;2.90;;;;;;;12.74;86.05;96661.01;127837;1093;27175;-91
2021/08/03 03:10:35;;;;;;;3.18;2.73;;;;;;;12.75;85.82;96658.05;127780;1093;28354;-90
2021/08/03 03:13:21;;;;;;;3.90;3.10;;;;;;;12.74;85.99;96667.12;127788;1091;30678;-91
2021/08/03 03:15:55;;;;;;;3.95;2.65;;;;;;;12.77;86.19;96663.08;127790;1093;28780;-91
2021/08/03 03:18:27;;;;;;;3.83;2.90;;;;;;;12.78;86.10;96683.28;127845;1093;30888;-92
2021/08/03 03:20:59;;;;;;;4.80;3.00;;;;;;;12.79;86.03;96682.20;127877;1093;26004;-91
2021/08/03 03:23:36;;;;;;;4.68;2.88;;;;;;;12.81;86.12;96687.23;127740;1093;38375;-91
2021/08/03 03:26:08;;;;;;;3.60;2.55;;;;;;;12.83;86.04;96677.90;127777;1092;27621;-90
2021/08/03 03:28:43;;;;;;;2.83;2.63;;;;;;;12.85;86.06;96688.25;127743;1093;30740;-91
2021/08/03 03:31:15;;;;;;;4.40;3.13;;;;;;;12.88;85.84;96682.34;127812;1093;32592;-92
2021/08/03 03:33:48;;;;;;;4.40;2.43;;;;;;;12.90;85.97;96691.61;127762;1092;28429;-92
2021/08/03 03:36:23;;;;;;;3.10;2.68;;;;;;;12.95;85.72;96683.56;127814;1093;28088;-91
2021/08/03 03:38:57;;;;;;;5.00;3.05;;;;;;;13.00;85.64;96691.45;127803;1093;31629;-91
2021/08/03 03:41:31;;;;;;;3.30;2.70;;;;;;;13.04;85.51;96694.31;127848;1093;31997;-91
2021/08/03 03:44:06;;;;;;;3.33;2.80;;;;;;;13.06;85.27;96694.81;127807;1092;28876;-92
2021/08/03 03:46:44;;;;;;;3.20;2.90;;;;;;;13.08;85.40;96692.64;127860;1092;30659;-92
2021/08/03 03:49:18;;;;;;;2.85;2.50;;;;;;;13.10;85.18;96703.02;127703;1093;32912;-91
2021/08/03 03:51:49;;;;;;;4.78;2.65;;;;;;;13.14;85.19;96704.02;127761;1093;27382;-90
2021/08/03 03:54:27;;;;;;;3.33;2.70;;;;;;;13.17;85.29;96706.08;127792;1093;30029;-91
2021/08/03 03:57:04;;;;;;;3.35;2.70;;;;;;;13.21;85.13;96702.56;127718;1093;32259;-91
2021/08/03 03:59:36;;;;;;;3.25;2.75;;;;;;;13.27;84.88;96711.27;127783;1093;27676;-92
2021/08/03 04:02:12;;;;;;;3.78;3.05;;;;;;;13.30;84.77;96705.36;127859;1093;28466;-92
2021/08/03 04:04:44;;;;;;;2.97;2.67;;;;;;;13.34;84.60;96709.01;127798;1092;36945;-92
2021/08/03 04:07:15;;;;;;;3.80;2.55;;;;;;;13.40;84.48;96707.85;127771;1092;34110;-91
2021/08/03 04:09:47;;;;;;;4.75;2.55;;;;;;;13.45;84.18;96706.96;127869;1093;28816;-92
2021/08/03 04:12:21;;;;;;;3.63;2.50;;;;;;;13.51;84.30;96711.10;127794;1093;30166;-92
2021/08/03 04:14:53;;;;;;;3.30;2.30;;;;;;;13.55;84.34;96715.56;127796;1093;32505;-91
2021/08/03 04:17:25;;;;;;;5.40;2.30;;;;;;;13.60;83.62;96715.46;127888;1093;29994;-91
2021/08/03 04:19:56;;;;;;;4.53;2.73;;;;;;;13.70;83.90;96725.15;127937;1095;31532;-91
2021/08/03 04:22:28;;;;;;;3.35;2.60;;;;;;;13.78;83.43;96716.45;127864;1093;34374;-93
2021/08/03 04:25:00;;;;;;;3.10;2.50;;;;;;;13.85;83.22;96718.74;127847;1094;29794;-92
2021/08/03 04:27:31;;;;;;;2.50;2.17;;;;;;;13.91;83.09;96725.55;127879;1093;34456;-93
2021/08/03 04:30:04;;;;;;;3.45;2.68;;;;;;;13.99;82.94;96722.20;127850;1091;30218;-93
2021/08/03 04:32:35;;;;;;;4.53;2.88;;;;;;;14.02;82.76;96721.59;127843;1093;38913;-92
2021/08/03 04:35:08;;;;;;;3.85;2.65;;;;;;;14.06;82.57;96711.91;127841;1093;29235;-92
2021/08/03 04:37:44;;;;;;;3.50;2.50;;;;;;;14.13;81.84;96717.65;127827;1093;31111;-92
2021/08/03 04:40:17;;;;;;;3.28;2.45;;;;;;;14.20;82.01;96709.23;127825;1091;30151;-91
2021/08/03 04:42:48;;;;;;;3.38;2.40;;;;;;;14.30;81.62;96716.23;127837;1093;28094;-93
2021/08/03 04:45:21;;;;;;;2.78;2.50;;;;;;;14.45;81.27;96711.39;127820;1092;26877;-92
2021/08/03 04:47:54;;;;;;;2.68;2.00;;;;;;;14.65;80.88;96720.84;127768;1092;32135;-92
2021/08/03 04:50:27;;;;;;;5.10;2.88;;;;;;;14.94;80.36;96711.65;127729;1093;31867;-93
2021/08/03 04:52:59;;;;;;;3.70;2.60;;;;;;;16.36;80.08;96718.61;127912;1093;31671;-93
2021/08/03 04:55:31;;;;;;;2.20;2.00;;;;;;;18.49;77.54;96707.25;127831;1095;29713;-93
2021/08/03 04:58:02;;;;;;;2.40;1.88;;;;;;;20.09;72.43;96707.44;127864;1093;29266;-92
2021/08/03 05:00:34;;;;;;;3.13;2.00;;;;;;;21.12;69.28;96712.44;127826;1093;31476;-92
2021/08/03 05:03:05;;;;;;;2.40;2.00;;;;;;;22.06;65.70;96709.09;127797;1093;31811;-92
2021/08/03 05:05:36;;;;;;;2.43;2.03;;;;;;;22.56;62.83;96705.61;127811;1093;26761;-92
2021/08/03 05:08:08;;;;;;;3.80;1.80;;;;;;;23.64;63.60;96710.08;127802;1093;30170;-93
2021/08/03 05:10:39;;;;;;;1.73;1.63;;;;;;;24.74;62.05;96708.30;127815;1093;27470;-94
2021/08/03 05:13:10;;;;;;;2.18;1.73;;;;;;;26.02;57.14;96715.13;127765;1092;39467;-94
2021/08/03 05:15:42;;;;;;;1.65;1.55;;;;;;;26.74;57.12;96710.19;127754;1093;27191;-94
2021/08/03 05:18:13;;;;;;;2.53;1.60;;;;;;;27.27;54.83;96709.66;127810;1093;34266;-93
2021/08/03 05:20:45;;;;;;;1.80;1.70;;;;;;;27.60;53.30;96717.54;127779;1093;29651;-94
2021/08/03 05:23:16;;;;;;;1.75;1.30;;;;;;;28.45;51.12;96707.87;127793;1093;28964;-92
2021/08/03 05:25:47;;;;;;;2.83;1.35;;;;;;;28.63;50.73;96709.38;127760;1093;28303;-94
2021/08/03 05:28:19;;;;;;;1.78;1.53;;;;;;;29.09;50.00;96708.46;127813;1093;28078;-94
2021/08/03 05:30:50;;;;;;;2.40;1.53;;;;;;;29.40;48.67;96717.66;127780;1093;28017;-93
2021/08/03 05:33:22;;;;;;;1.58;1.30;;;;;;;30.03;47.50;96715.72;127813;1093;30575;-94
2021/08/03 05:35:53;;;;;;;6.48;1.65;;;;;;;30.60;47.29;96714.45;127785;1093;25995;-93
2021/08/03 05:38:24;;;;;;;1.40;1.13;;;;;;;31.23;45.96;96715.70;127741;1093;30091;-94
2021/08/03 05:40:56;;;;;;;1.75;1.48;;;;;;;31.80;44.21;96712.20;127838;1093;26349;-93
2021/08/03 05:43:28;;;;;;;1.70;1.40;;;;;;;31.96;43.72;96708.06;127843;1095;29452;-95
2021/08/03 05:45:59;;;;;;;1.30;1.15;;;;;;;32.25;42.28;96703.66;127852;1093;30950;-93
2021/08/03 05:48:31;;;;;;;1.48;1.35;;;;;;;32.68;41.23;96708.41;127787;1093;33775;-94
2021/08/03 05:51:03;;;;;;;1.63;1.23;;;;;;;32.87;40.38;96704.14;127790;1093;32610;-94
2021/08/03 05:53:35;;;;;;;1.48;1.38;;;;;;;32.98;39.48;96705.48;127815;1093;26905;-93
2021/08/03 05:56:07;;;;;;;1.53;1.43;;;;;;;33.11;39.28;96702.87;127744;1093;32996;-93
2021/08/03 05:58:39;;;;;;;1.58;1.48;;;;;;;33.65;39.19;96703.28;127732;1093;32907;-94
2021/08/03 06:01:11;;;;;;;1.68;1.30;;;;;;;33.92;37.28;96702.27;127762;1093;30553;-94
2021/08/03 06:03:42;;;;;;;1.65;1.40;;;;;;;33.98;37.65;96705.30;127771;1093;32705;-93
2021/08/03 06:06:20;;;;;;;1.83;0.93;;;;;;;34.13;37.37;96715.52;127743;1093;37248;-92
2021/08/03 06:08:52;;;;;;;1.63;1.30;;;;;;;34.59;36.53;96713.58;127797;1093;27963;-92
2021/08/03 06:11:26;;;;;;;1.55;1.20;;;;;;;35.30;35.69;96711.61;127746;1093;32902;-93
2021/08/03 06:13:59;;;;;;;1.28;1.10;;;;;;;35.35;36.00;96713.84;127805;1093;29992;-93
2021/08/03 06:16:32;;;;;;;1.13;1.00;;;;;;;36.09;35.03;96709.24;127766;1092;26251;-94
2021/08/03 06:19:06;;;;;;;1.20;1.10;;;;;;;36.31;34.79;96715.58;127742;1092;26281;-94
2021/08/03 06:21:39;;;;;;;1.88;1.20;;;;;;;36.12;33.66;96716.63;127722;1093;25594;-93
2021/08/03 06:24:11;;;;;;;1.88;1.15;;;;;;;36.45;34.89;96714.36;127682;1092;32158;-93
2021/08/03 06:26:43;;;;;;;1.23;1.05;;;;;;;37.00;32.99;96714.81;127746;1093;30690;-93
2021/08/03 06:29:15;;;;;;;1.40;1.30;;;;;;;36.98;33.36;96711.73;127687;1092;29103;-92
2021/08/03 06:31:47;;;;;;;1.35;1.10;;;;;;;37.10;32.16;96713.66;127686;1093;29304;-93
2021/08/03 06:34:21;;;;;;;3.43;1.25;;;;;;;37.11;31.74;96718.73;127693;1093;30030;-93
2021/08/03 06:36:53;;;;;;;2.20;1.20;;;;;;;37.04;31.51;96719.02;127681;1093;28595;-93
2021/08/03 06:39:24;;;;;;;2.70;1.30;;;;;;;37.12;31.43;96716.74;127745;1092;25357;-93
2021/08/03 06:42:03;;;;;;;1.30;1.00;;;;;;;37.69;30.68;96715.37;127823;1093;26525;-95
2021/08/03 06:44:48;;;;;;;1.25;1.05;;;;;;;38.22;30.81;96718.05;127728;1092;31596;-94
2021/08/03 06:47:24;;;;;;;0.90;0.90;;;;;;;38.39;30.43;96714.98;127767;1092;28985;-94
2021/08/03 06:50:00;;;;;;;0.80;0.80;;;;;;;38.53;29.94;96714.38;127845;1095;27755;-94
2021/08/03 06:52:34;;;;;;;1.80;0.90;;;;;;;38.67;30.00;96711.02;127707;1093;31366;-95
2021/08/03 06:55:08;;;;;;;0.95;0.85;;;;;;;39.33;29.51;96719.59;127777;1093;30106;-96
2021/08/03 06:57:49;;;;;;;1.00;0.95;;;;;;;40.12;29.22;96710.34;127777;1093;30044;-95
2021/08/03 07:00:23;;;;;;;1.25;0.80;;;;;;;40.54;28.68;96711.02;127806;1093;28349;-96
2021/08/03 07:02:56;;;;;;;1.33;1.03;;;;;;;40.47;27.67;96714.16;127787;1093;29858;-95
2021/08/03 07:05:30;;;;;;;1.77;0.80;;;;;;;40.01;26.37;96708.88;127882;1093;29286;-95
2021/08/03 07:08:02;;;;;;;0.78;0.78;;;;;;;39.86;26.65;96708.01;127809;1094;32300;-95
2021/08/03 07:10:34;;;;;;;2.77;1.13;;;;;;;39.60;27.25;96709.66;127751;1093;34213;-95
2021/08/03 07:13:06;;;;;;;0.90;0.90;;;;;;;40.12;27.24;96707.56;127768;1092;33135;-95
2021/08/03 07:15:38;;;;;;;0.80;0.80;;;;;;;40.84;25.88;96697.20;127820;1093;38276;-95
2021/08/03 07:18:11;;;;;;;0.70;0.70;;;;;;;41.13;25.84;96704.80;127832;1095;28880;-96
2021/08/03 07:20:45;;;;;;;1.05;0.83;;;;;;;41.59;25.29;96710.64;127739;1093;29974;-95
2021/08/03 07:23:20;;;;;;;1.08;0.70;;;;;;;41.80;24.64;96709.45;127789;1093;35243;-95
2021/08/03 07:25:53;;;;;;;1.03;0.70;;;;;;;41.80;24.87;96703.89;127812;1093;36809;-94
2021/08/03 07:28:24;;;;;;;0.75;0.75;;;;;;;42.09;24.35;96707.86;127810;1093;38914;-95
2021/08/03 07:30:56;;;;;;;0.45;0.45;;;;;;;42.46;24.18;96710.11;127802;1093;30011;-95
2021/08/03 07:33:27;;;;;;;1.08;0.80;;;;;;;42.63;23.12;96705.52;127821;1093;33379;-95
2021/08/03 07:35:59;;;;;;;0.95;0.68;;;;;;;42.58;22.54;96718.15;127849;1093;33905;-95
2021/08/03 07:38:31;;;;;;;1.03;0.70;;;;;;;42.48;22.43;96711.15;127777;1093;33457;-95
2021/08/03 07:41:02;;;;;;;0.83;0.60;;;;;;;41.97;23.23;96714.52;127832;1093;36611;-94
2021/08/03 07:43:34;;;;;;;1.55;0.90;;;;;;;42.38;22.71;96713.33;127740;1093;48325;-94
2021/08/03 07:46:07;;;;;;;1.68;0.65;;;;;;;42.46;23.50;96715.69;127739;1093;38402;-96
2021/08/03 07:48:38;;;;;;;0.80;0.80;;;;;;;42.54;22.04;96722.41;127755;1093;37704;-95
2021/08/03 07:51:10;;;;;;;0.55;0.55;;;;;;;42.36;21.80;96728.98;127768;1093;32246;-95
2021/08/03 07:53:42;;;;;;;0.63;0.60;;;;;;;42.35;22.21;96719.09;127711;1093;32644;-95
2021/08/03 07:56:14;;;;;;;1.25;0.80;;;;;;;42.64;22.59;96723.78;127776;1093;32211;-95
2021/08/03 07:58:45;;;;;;;1.68;0.53;;;;;;;42.95;21.28;96725.94;127745;1093;34734;-96
2021/08/03 08:01:21;;;;;;;0.60;0.60;;;;;;;42.38;18.07;96720.92;127740;1093;32389;-94
2021/08/03 08:03:52;;;;;;;0.50;0.50;;;;;;;41.50;19.20;96727.44;127831;1095;32858;-95
2021/08/03 08:06:23;;;;;;;0.60;0.60;;;;;;;40.55;19.54;96720.90;127796;1093;31362;-94
2021/08/03 08:08:55;;;;;;;0.95;0.63;;;;;;;40.26;21.70;96726.30;128698;1093;29927;-95
2021/08/03 08:11:29;;;;;;;1.60;0.80;;;;;;;41.57;21.43;96715.92;130118;1091;29646;-94
2021/08/03 08:14:01;;;;;;;1.43;0.50;;;;;;;41.36;19.42;96719.87;129416;1093;32397;-94
2021/08/03 08:16:33;;;;;;;0.63;0.63;;;;;;;40.71;19.53;96721.70;127803;1092;32984;-94
2021/08/03 08:19:04;;;;;;;0.60;0.60;;;;;;;40.81;19.50;96715.56;127794;1093;30332;-95
2021/08/03 08:21:36;;;;;;;0.73;0.70;;;;;;;40.74;20.35;96715.95;127759;1095;31856;-92
2021/08/03 08:24:09;;;;;;;0.80;0.70;;;;;;;40.81;20.93;96714.80;127768;1093;35584;-94
2021/08/03 08:26:41;;;;;;;1.08;0.60;;;;;;;40.28;21.71;96723.84;127775;1093;31970;-94
2021/08/03 08:29:16;;;;;;;0.88;0.80;;;;;;;39.36;21.75;96718.65;127799;1092;30238;-94
2021/08/03 08:31:48;;;;;;;0.80;0.80;;;;;;;39.29;22.24;96718.98;127793;1093;28932;-95
2021/08/03 08:34:21;;;;;;;1.30;1.00;;;;;;;37.32;23.15;96713.67;127813;1093;30660;-95
2021/08/03 08:36:53;;;;;;;1.88;0.93;;;;;;;34.97;24.13;96715.74;127774;1093;30343;-93
2021/08/03 08:39:24;;;;;;;1.35;1.00;;;;;;;33.21;25.05;96714.81;127757;1095;28161;-93
2021/08/03 08:41:56;;;;;;;2.23;0.80;;;;;;;32.16;26.61;96722.61;127760;1092;34375;-92
2021/08/03 08:44:28;;;;;;;1.50;1.05;;;;;;;33.00;27.41;96722.30;127853;1094;31259;-94
2021/08/03 08:47:00;;;;;;;1.53;0.80;;;;;;;33.08;26.92;96725.70;127833;1092;28735;-93
2021/08/03 08:49:32;;;;;;;1.25;1.05;;;;;;;32.36;27.55;96717.97;127769;1093;26614;-94
2021/08/03 08:52:04;;;;;;;1.00;0.88;;;;;;;32.16;28.33;96717.91;127792;1093;33826;-94
2021/08/03 08:54:35;;;;;;;2.70;0.88;;;;;;;31.73;28.67;96709.58;127741;1093;27699;-93
2021/08/03 08:57:08;;;;;;;1.83;1.00;;;;;;;30.96;29.72;96715.63;127779;1093;27036;-94
2021/08/03 08:59:40;;;;;;;1.15;0.90;;;;;;;30.37;30.00;96707.63;127815;1092;28773;-93
2021/08/03 09:02:12;;;;;;;1.50;1.28;;;;;;;29.62;30.72;96706.65;127743;1093;28876;-95
2021/08/03 09:04:44;;;;;;;1.15;0.80;;;;;;;29.27;31.98;96703.69;127789;1093;30923;-94
2021/08/03 09:07:16;;;;;;;2.10;1.23;;;;;;;29.38;31.84;96694.66;127808;1093;31301;-94
2021/08/03 09:09:48;;;;;;;2.18;1.40;;;;;;;28.81;32.59;96695.67;127845;1093;33289;-94
2021/08/03 09:12:32;;;;;;;3.03;1.30;;;;;;;27.67;33.26;96695.00;127764;1092;33057;-94
2021/08/03 09:15:19;;;;;;;1.43;1.20;;;;;;;27.17;35.06;96697.59;127769;1092;41955;-94
2021/08/03 09:17:51;;;;;;;2.13;1.53;;;;;;;27.19;35.59;96690.60;127816;1093;27514;-94
2021/08/03 09:20:23;;;;;;;1.70;1.60;;;;;;;27.32;36.30;96692.97;127741;1093;33307;-94
2021/08/03 09:22:55;;;;;;;1.95;1.25;;;;;;;26.95;35.61;96685.04;127826;1092;29382;-94
2021/08/03 09:25:26;;;;;;;1.70;1.25;;;;;;;26.38;36.31;96693.69;127855;1093;31258;-94
2021/08/03 09:28:04;;;;;;;5.33;1.63;;;;;;;26.28;36.97;96688.92;127814;1093;38145;-94
2021/08/03 09:30:38;;;;;;;1.80;1.57;;;;;;;25.99;37.72;96691.44;127777;1093;26783;-93
2021/08/03 09:33:10;;;;;;;3.10;1.60;;;;;;;25.56;37.82;96689.48;127767;1092;29742;-94
2021/08/03 09:35:48;;;;;;;1.53;1.43;;;;;;;25.01;39.28;96695.49;127761;1092;27677;-92
2021/08/03 09:38:21;;;;;;;2.85;1.35;;;;;;;24.44;40.24;96688.53;127743;1092;26998;-93
2021/08/03 09:40:55;;;;;;;2.03;1.45;;;;;;;24.05;41.44;96686.00;127752;1093;29130;-93
2021/08/03 09:43:30;;;;;;;1.70;1.60;;;;;;;24.02;41.76;96692.14;127801;1093;30394;-93
2021/08/03 09:46:03;;;;;;;3.67;1.77;;;;;;;24.32;42.39;96694.16;127732;1093;39127;-94
2021/08/03 09:48:35;;;;;;;1.53;1.40;;;;;;;24.83;42.34;96691.77;127787;1093;31351;-94
2021/08/03 09:51:09;;;;;;;1.23;1.13;;;;;;;24.93;41.18;96684.92;127743;1093;28422;-94
2021/08/03 09:53:51;;;;;;;1.48;1.38;;;;;;;24.80;40.92;96687.08;127713;1093;33683;-94
2021/08/03 09:56:36;;;;;;;1.63;1.48;;;;;;;24.97;41.43;96683.02;127765;1093;30671;-93
2021/08/03 09:59:10;;;;;;;1.93;1.43;;;;;;;25.25;41.66;96686.08;127739;1093;31050;-93
2021/08/03 10:01:43;;;;;;;1.63;1.50;;;;;;;25.37;42.24;96683.11;127755;1093;26975;-92
2021/08/03 10:04:15;;;;;;;1.90;1.40;;;;;;;25.57;42.17;96677.47;127711;1093;32059;-92
2021/08/03 10:06:47;;;;;;;3.20;1.50;;;;;;;25.62;41.93;96671.72;127719;1095;31160;-93
2021/08/03 10:09:21;;;;;;;2.10;1.80;;;;;;;25.65;41.84;96671.73;127814;1093;28133;-94
2021/08/03 10:11:56;;;;;;;2.23;1.40;;;;;;;25.78;42.45;96672.27;127746;1093;36080;-94
2021/08/03 10:14:28;;;;;;;1.90;1.65;;;;;;;25.71;41.34;96672.20;127833;1092;43625;-94
2021/08/03 10:16:59;;;;;;;1.85;1.45;;;;;;;25.82;42.30;96666.86;127831;1091;61917;-93
2021/08/03 10:19:35;;;;;;;1.73;1.33;;;;;;;25.88;42.17;96666.13;127733;1092;31678;-94
2021/08/03 10:22:23;;;;;;;1.73;1.60;;;;;;;25.92;41.50;96679.75;127760;1092;32102;-92
2021/08/03 10:24:58;;;;;;;1.50;1.25;;;;;;;25.54;40.52;96670.86;127806;1092;26910;-94
2021/08/03 10:27:44;;;;;;;1.95;1.50;;;;;;;24.94;40.99;96676.41;128008;1093;30472;-93
2021/08/03 10:30:35;;;;;;;2.30;1.48;;;;;;;24.67;41.44;96667.55;127798;1093;31352;-92
2021/08/03 10:33:11;;;;;;;2.60;1.60;;;;;;;24.72;42.57;96666.44;127746;1093;30821;-92
2021/08/03 10:35:48;;;;;;;1.48;1.20;;;;;;;24.70;43.06;96661.39;127757;1093;32549;-93
2021/08/03 10:38:21;;;;;;;2.40;1.30;;;;;;;24.55;41.80;96654.23;127721;1093;34358;-93
2021/08/03 10:41:03;;;;;;;2.15;1.50;;;;;;;24.10;42.27;96661.33;127745;1093;40100;-92
2021/08/03 10:43:54;;;;;;;3.20;1.65;;;;;;;23.88;42.86;96660.20;127722;1093;35655;-93
2021/08/03 10:46:38;;;;;;;1.95;1.55;;;;;;;23.95;43.42;96664.97;127772;1093;31510;-94
2021/08/03 10:49:12;;;;;;;1.93;1.45;;;;;;;23.85;43.62;96657.45;127740;1093;36956;-92
2021/08/03 10:51:49;;;;;;;1.35;1.10;;;;;;;23.84;43.36;96659.38;127752;1093;31931;-93
2021/08/03 10:54:30;;;;;;;2.78;1.33;;;;;;;23.72;43.99;96664.20;127841;1093;30584;-93
2021/08/03 10:57:21;;;;;;;2.10;1.60;;;;;;;23.62;44.84;96655.53;127693;1093;31670;-92
2021/08/03 11:00:04;;;;;;;2.28;1.58;;;;;;;23.72;44.48;96654.15;127743;1092;33259;-92
2021/08/03 11:02:50;;;;;;;2.83;1.55;;;;;;;23.90;44.89;96646.30;127746;1093;33756;-93
2021/08/03 11:05:34;;;;;;;1.73;1.28;;;;;;;24.10;44.99;96639.66;127746;1093;28327;-93
2021/08/03 11:08:43;;;;;;;2.38;1.53;;;;;;;24.15;44.21;96642.05;127817;1093;26985;-94
2021/08/03 11:11:22;;;;;;;1.65;1.30;;;;;;;24.13;44.05;96630.80;127768;1092;59388;-93
2021/08/03 11:13:55;;;;;;;1.63;1.40;;;;;;;24.06;44.00;96622.55;127843;1093;41456;-93
2021/08/03 11:16:50;;;;;;;2.90;1.45;;;;;;;24.25;45.24;96625.16;127841;1093;32108;-93
2021/08/03 11:19:35;;;;;;;1.95;1.40;;;;;;;24.41;44.63;96619.59;127781;1092;32274;-92
2021/08/03 11:22:08;;;;;;;1.53;1.40;;;;;;;24.53;44.32;96615.88;127791;1093;34614;-93
2021/08/03 11:24:46;;;;;;;1.90;1.30;;;;;;;24.48;43.92;96608.05;127789;1093;34066;-93
2021/08/03 11:27:28;;;;;;;2.23;1.50;;;;;;;24.59;44.25;96617.09;127799;1093;37921;-93
2021/08/03 11:30:09;;;;;;;2.15;1.43;;;;;;;24.59;44.17;96611.67;127885;1095;29589;-94
2021/08/03 11:32:40;;;;;;;2.00;1.55;;;;;;;24.66;43.84;96611.78;127802;1093;32917;-94
2021/08/03 11:35:12;;;;;;;5.50;1.80;;;;;;;24.57;43.90;96601.20;127797;1092;27743;-95
2021/08/03 11:37:45;;;;;;;2.25;1.43;;;;;;;24.43;44.27;96606.45;127835;1093;26575;-95
2021/08/03 11:40:20;;;;;;;2.20;1.60;;;;;;;24.39;43.86;96607.56;127859;1093;29295;-93
2021/08/03 11:42:51;;;;;;;2.35;1.50;;;;;;;24.29;42.82;96603.53;127832;1093;32109;-93
2021/08/03 11:45:24;;;;;;;3.08;1.48;;;;;;;24.13;42.26;96598.29;127780;1094;37049;-94
2021/08/03 11:48:01;;;;;;;1.68;1.50;;;;;;;23.95;42.97;96594.56;127817;1093;32763;-92
2021/08/03 11:50:35;;;;;;;1.90;1.58;;;;;;;23.81;43.17;96599.77;127733;1093;33337;-93
2021/08/03 11:53:11;;;;;;;2.15;1.40;;;;;;;23.65;42.98;96586.38;127796;1094;34678;-94
2021/08/03 11:55:45;;;;;;;3.35;1.60;;;;;;;23.48;43.21;96587.61;127721;1093;29203;-91
2021/08/03 11:58:20;;;;;;;1.68;1.50;;;;;;;23.41;43.17;96584.80;127770;1093;29527;-93